Time;durP1;ratioP1;P1;durP2;ratioP2;P2;SDS_P1;SDS_P2;PMS_P1;PMS_P2;Temp;Humidity;BMP_temperature;BMP_pressure;BME280_temperature;BME280_humidity;BME280_pressure;Samples;Min_cycle;Max_cycle;Signal;HPM_P1;HPM_P2
2023/09/09 00:00:43;;;;;;;21.33;17.85;;;;;;;;;;5070679;28;20051;-59
2023/09/09 00:03:09;;;;;;;22.83;20.15;;;;;;;;;;5069297;28;20036;-59
2023/09/09 00:05:35;;;;;;;19.08;17.00;;;;;;;;;;5070798;28;20496;-59
2023/09/09 00:08:02;;;;;;;23.95;20.95;;;;;;;;;;5071033;28;20044;-59
2023/09/09 00:10:29;;;;;;;24.40;21.42;;;;;;;;;;5069778;28;20400;-58
2023/09/09 00:12:57;;;;;;;24.27;21.50;;;;;;;;;;5064468;28;20049;-59
2023/09/09 00:15:23;;;;;;;24.70;21.98;;;;;;;;;;5066676;28;20861;-59
2023/09/09 00:17:51;;;;;;;23.70;19.98;;;;;;;;;;5070276;28;20040;-59
2023/09/09 00:20:17;;;;;;;25.17;21.30;;;;;;;;;;5071086;28;20071;-59
2023/09/09 00:22:43;;;;;;;25.05;22.45;;;;;;;;;;5066842;28;20457;-59
2023/09/09 00:25:09;;;;;;;25.67;22.63;;;;;;;;;;5070113;28;20044;-59
2023/09/09 00:27:36;;;;;;;23.90;21.30;;;;;;;;;;5068102;28;20090;-59
2023/09/09 00:30:03;;;;;;;23.30;20.80;;;;;;;;;;5058858;28;20048;-59
2023/09/09 00:32:29;;;;;;;25.55;19.70;;;;;;;;;;5067129;28;20087;-59
2023/09/09 00:34:55;;;;;;;25.48;22.75;;;;;;;;;;5066830;28;20044;-59
2023/09/09 00:37:21;;;;;;;26.63;19.77;;;;;;;;;;5068689;28;20055;-59
2023/09/09 00:39:47;;;;;;;21.30;19.13;;;;;;;;;;5068612;28;20522;-59
2023/09/09 00:42:14;;;;;;;22.35;19.98;;;;;;;;;;5068485;28;20048;-59
2023/09/09 00:44:40;;;;;;;25.27;20.83;;;;;;;;;;5069050;28;20048;-59
2023/09/09 00:47:06;;;;;;;24.05;18.88;;;;;;;;;;5067318;28;20555;-58
2023/09/09 00:49:33;;;;;;;22.08;18.60;;;;;;;;;;5064765;28;20480;-58
2023/09/09 00:51:59;;;;;;;20.92;18.73;;;;;;;;;;5068428;28;20107;-59
2023/09/09 00:54:25;;;;;;;19.77;16.95;;;;;;;;;;5061468;28;20064;-59
2023/09/09 00:56:51;;;;;;;17.02;14.35;;;;;;;;;;5068246;28;20042;-59
2023/09/09 00:59:18;;;;;;;19.70;17.23;;;;;;;;;;5069513;28;20460;-59
2023/09/09 01:01:45;;;;;;;19.52;17.52;;;;;;;;;;5070096;28;20048;-59
2023/09/09 01:04:11;;;;;;;17.08;14.95;;;;;;;;;;5070619;28;20087;-59
2023/09/09 01:06:37;;;;;;;21.20;17.63;;;;;;;;;;5069604;28;20050;-59
2023/09/09 01:09:08;;;;;;;22.67;18.73;;;;;;;;;;5070500;28;20418;-59
2023/09/09 01:11:34;;;;;;;26.20;19.85;;;;;;;;;;5066391;28;20485;-59
2023/09/09 01:14:02;;;;;;;21.90;19.30;;;;;;;;;;5069776;28;20396;-59
2023/09/09 01:16:28;;;;;;;26.52;21.25;;;;;;;;;;5069654;28;20055;-59
2023/09/09 01:18:55;;;;;;;16.67;14.85;;;;;;;;;;5069766;28;20045;-59
2023/09/09 01:21:22;;;;;;;16.02;13.70;;;;;;;;;;5067887;28;20040;-59
2023/09/09 01:23:48;;;;;;;21.08;17.30;;;;;;;;;;5064031;28;20045;-59
2023/09/09 01:26:14;;;;;;;23.50;18.55;;;;;;;;;;5068688;28;20036;-59
2023/09/09 01:28:40;;;;;;;22.92;20.23;;;;;;;;;;5068507;28;20485;-59
2023/09/09 01:31:07;;;;;;;24.30;19.13;;;;;;;;;;5068366;28;20052;-59
2023/09/09 01:33:33;;;;;;;24.15;18.45;;;;;;;;;;5067407;28;20052;-59
2023/09/09 01:35:59;;;;;;;23.27;18.55;;;;;;;;;;5066468;28;20037;-59
2023/09/09 01:38:25;;;;;;;24.42;17.77;;;;;;;;;;5069012;28;20056;-59
2023/09/09 01:40:51;;;;;;;18.85;15.57;;;;;;;;;;5066767;28;20456;-59
2023/09/09 01:43:18;;;;;;;21.05;18.83;;;;;;;;;;5068871;28;20044;-59
2023/09/09 01:45:44;;;;;;;21.40;18.48;;;;;;;;;;5068573;28;20506;-59
2023/09/09 01:48:10;;;;;;;21.67;16.80;;;;;;;;;;5068492;28;20052;-59
2023/09/09 01:50:36;;;;;;;12.30;11.05;;;;;;;;;;5068010;28;20875;-59
2023/09/09 01:53:03;;;;;;;22.83;18.35;;;;;;;;;;5066656;28;20055;-59
2023/09/09 01:55:29;;;;;;;19.45;16.95;;;;;;;;;;5053469;28;20045;-59
2023/09/09 01:57:55;;;;;;;19.98;16.23;;;;;;;;;;5062355;28;20044;-59
2023/09/09 02:00:22;;;;;;;17.13;14.70;;;;;;;;;;5064588;28;20519;-59
2023/09/09 02:02:48;;;;;;;18.48;15.50;;;;;;;;;;5064252;28;20044;-59
2023/09/09 02:05:14;;;;;;;18.67;15.85;;;;;;;;;;5072070;28;20064;-59
2023/09/09 02:07:40;;;;;;;20.15;16.55;;;;;;;;;;5071465;28;20066;-59
2023/09/09 02:10:07;;;;;;;25.02;19.88;;;;;;;;;;5063457;28;20037;-59
2023/09/09 02:12:34;;;;;;;22.10;18.88;;;;;;;;;;5069602;28;20043;-59
2023/09/09 02:15:00;;;;;;;27.27;20.23;;;;;;;;;;5070729;28;20086;-59
2023/09/09 02:17:26;;;;;;;27.00;21.88;;;;;;;;;;5071190;28;20506;-59
2023/09/09 02:19:55;;;;;;;20.27;16.80;;;;;;;;;;5072711;28;20037;-59
2023/09/09 02:22:22;;;;;;;18.27;12.85;;;;;;;;;;5070760;28;20113;-59
2023/09/09 02:24:53;;;;;;;15.85;12.38;;;;;;;;;;5071132;28;20063;-59
2023/09/09 02:27:19;;;;;;;14.38;12.85;;;;;;;;;;5069157;28;20044;-59
2023/09/09 02:29:45;;;;;;;20.73;15.57;;;;;;;;;;5069457;28;20068;-59
2023/09/09 02:32:11;;;;;;;17.90;15.98;;;;;;;;;;5071100;28;20097;-59
2023/09/09 02:34:38;;;;;;;21.20;16.92;;;;;;;;;;5071577;28;20456;-59
2023/09/09 02:37:20;;;;;;;19.88;17.73;;;;;;;;;;5071645;28;20467;-59
2023/09/09 02:39:50;;;;;;;21.80;17.92;;;;;;;;;;5070053;28;20063;-59
2023/09/09 02:42:24;;;;;;;18.50;16.25;;;;;;;;;;5071211;28;20388;-59
2023/09/09 02:44:50;;;;;;;14.73;12.65;;;;;;;;;;5062546;28;20424;-59
2023/09/09 02:47:16;;;;;;;16.52;13.30;;;;;;;;;;5068978;28;20048;-59
2023/09/09 02:49:43;;;;;;;11.98;9.32;;;;;;;;;;5064908;28;20073;-59
2023/09/09 02:52:10;;;;;;;12.75;10.70;;;;;;;;;;5070908;28;20460;-59
2023/09/09 02:54:36;;;;;;;14.82;11.45;;;;;;;;;;5073371;28;20048;-59
2023/09/09 02:57:06;;;;;;;15.00;12.50;;;;;;;;;;5072155;28;20154;-59
2023/09/09 02:59:35;;;;;;;11.48;10.27;;;;;;;;;;5071925;28;20377;-59
2023/09/09 03:02:02;;;;;;;10.88;9.77;;;;;;;;;;5070387;28;20060;-59
2023/09/09 03:04:28;;;;;;;11.80;10.60;;;;;;;;;;5065057;28;20424;-59
2023/09/09 03:06:54;;;;;;;12.40;11.10;;;;;;;;;;5070040;28;20033;-59
2023/09/09 03:09:20;;;;;;;14.07;12.40;;;;;;;;;;5071933;28;20048;-59
2023/09/09 03:11:47;;;;;;;13.45;12.05;;;;;;;;;;5071265;28;20040;-59
2023/09/09 03:14:13;;;;;;;14.77;12.80;;;;;;;;;;5071558;28;20510;-59
2023/09/09 03:16:39;;;;;;;14.60;11.82;;;;;;;;;;5072007;28;20047;-59
2023/09/09 03:19:05;;;;;;;15.57;13.93;;;;;;;;;;5062285;28;20060;-59
2023/09/09 03:21:31;;;;;;;14.63;12.57;;;;;;;;;;5068433;28;20049;-59
2023/09/09 03:23:58;;;;;;;13.25;11.30;;;;;;;;;;5070857;28;20460;-59
2023/09/09 03:26:24;;;;;;;15.05;13.45;;;;;;;;;;5071641;28;20071;-59
2023/09/09 03:28:50;;;;;;;14.15;12.63;;;;;;;;;;5070590;28;20041;-59
2023/09/09 03:31:17;;;;;;;16.20;11.98;;;;;;;;;;5070449;28;20036;-59
2023/09/09 03:33:43;;;;;;;10.20;9.20;;;;;;;;;;5061745;28;20041;-59
2023/09/09 03:36:10;;;;;;;9.10;8.23;;;;;;;;;;5069907;28;20115;-59
2023/09/09 03:38:36;;;;;;;11.10;10.00;;;;;;;;;;5070115;28;20041;-59
2023/09/09 03:41:06;;;;;;;11.10;9.98;;;;;;;;;;5070115;28;20041;-59
2023/09/09 03:43:33;;;;;;;11.23;10.05;;;;;;;;;;5068375;28;20147;-59
2023/09/09 03:45:59;;;;;;;13.35;11.20;;;;;;;;;;5068862;28;20384;-59
2023/09/09 03:48:26;;;;;;;13.73;11.75;;;;;;;;;;5070675;28;20063;-59
2023/09/09 03:50:56;;;;;;;12.30;8.90;;;;;;;;;;5070829;28;20075;-59
2023/09/09 03:53:23;;;;;;;9.40;7.88;;;;;;;;;;5067952;28;20123;-59
2023/09/09 03:55:49;;;;;;;11.18;9.50;;;;;;;;;;5070289;28;20044;-59
2023/09/09 03:58:15;;;;;;;9.77;7.95;;;;;;;;;;5061493;28;20053;-59
2023/09/09 04:00:41;;;;;;;9.85;8.10;;;;;;;;;;5067703;28;20112;-59
2023/09/09 04:03:07;;;;;;;9.68;7.97;;;;;;;;;;5066493;28;20149;-59
2023/09/09 04:05:33;;;;;;;9.15;7.32;;;;;;;;;;5068818;28;20051;-59
2023/09/09 04:08:03;;;;;;;6.80;5.97;;;;;;;;;;5068762;28;20446;-59
2023/09/09 04:10:29;;;;;;;10.45;7.55;;;;;;;;;;5069724;28;20055;-59
2023/09/09 04:12:56;;;;;;;8.00;7.10;;;;;;;;;;5069440;28;20409;-59
2023/09/09 04:15:22;;;;;;;8.90;7.70;;;;;;;;;;5067588;28;20733;-59
2023/09/09 04:17:48;;;;;;;6.53;5.90;;;;;;;;;;5070988;28;20044;-59
2023/09/09 04:20:14;;;;;;;9.10;6.97;;;;;;;;;;5069787;28;20102;-59
2023/09/09 04:22:40;;;;;;;12.38;9.02;;;;;;;;;;5068815;28;20561;-59
2023/09/09 04:25:07;;;;;;;11.27;8.88;;;;;;;;;;5066114;28;20374;-59
2023/09/09 04:27:33;;;;;;;8.30;6.95;;;;;;;;;;5068278;28;20159;-59
2023/09/09 04:29:59;;;;;;;12.23;10.68;;;;;;;;;;5068845;28;20041;-59
2023/09/09 04:32:25;;;;;;;10.35;8.15;;;;;;;;;;5069946;28;20095;-59
2023/09/09 04:34:52;;;;;;;11.60;8.68;;;;;;;;;;5065487;28;20128;-59
2023/09/09 04:37:18;;;;;;;15.57;10.82;;;;;;;;;;5069313;28;20044;-59
2023/09/09 04:39:44;;;;;;;14.73;9.10;;;;;;;;;;5068724;28;20044;-58
2023/09/09 04:42:11;;;;;;;10.30;7.88;;;;;;;;;;5067352;28;20404;-58
2023/09/09 04:44:37;;;;;;;11.45;7.97;;;;;;;;;;5065771;28;20435;-58
2023/09/09 04:47:03;;;;;;;11.88;7.97;;;;;;;;;;5068842;28;20045;-59
2023/09/09 04:49:31;;;;;;;7.95;6.80;;;;;;;;;;5064138;28;20040;-59
2023/09/09 04:51:57;;;;;;;7.75;6.85;;;;;;;;;;5068750;28;20438;-59
2023/09/09 04:54:23;;;;;;;9.65;7.97;;;;;;;;;;5058804;28;20040;-59
2023/09/09 04:56:49;;;;;;;8.52;7.40;;;;;;;;;;5061762;28;20119;-59
2023/09/09 04:59:15;;;;;;;10.27;8.00;;;;;;;;;;5066849;28;20044;-59
2023/09/09 05:01:42;;;;;;;9.85;8.43;;;;;;;;;;5062072;28;20045;-59
2023/09/09 05:04:08;;;;;;;14.23;10.95;;;;;;;;;;5065994;28;20036;-59
2023/09/09 05:06:34;;;;;;;15.48;12.75;;;;;;;;;;5055366;28;20370;-58
2023/09/09 05:09:00;;;;;;;20.58;15.32;;;;;;;;;;5058541;28;20045;-59
2023/09/09 05:11:26;;;;;;;14.52;11.68;;;;;;;;;;5063736;28;20175;-59
2023/09/09 05:13:53;;;;;;;13.48;11.35;;;;;;;;;;5067162;28;20656;-59
2023/09/09 05:16:19;;;;;;;14.25;12.07;;;;;;;;;;5065749;28;20045;-58
2023/09/09 05:18:45;;;;;;;15.00;13.20;;;;;;;;;;5066219;28;20475;-59
2023/09/09 05:21:11;;;;;;;14.68;12.10;;;;;;;;;;5066629;28;20388;-59
2023/09/09 05:23:37;;;;;;;23.58;12.80;;;;;;;;;;5067356;28;20082;-59
2023/09/09 05:26:04;;;;;;;21.20;12.13;;;;;;;;;;5063480;28;20044;-59
2023/09/09 05:28:33;;;;;;;32.33;14.73;;;;;;;;;;5069950;28;20036;-59
2023/09/09 05:30:59;;;;;;;39.25;15.40;;;;;;;;;;5069143;28;20049;-59
2023/09/09 05:33:25;;;;;;;18.13;14.88;;;;;;;;;;5068584;28;20471;-59
2023/09/09 05:35:51;;;;;;;17.52;15.27;;;;;;;;;;5065549;28;20045;-59
2023/09/09 05:38:18;;;;;;;17.40;15.57;;;;;;;;;;5071383;28;20433;-59
2023/09/09 05:40:44;;;;;;;20.48;17.42;;;;;;;;;;5068256;28;20089;-58
2023/09/09 05:43:10;;;;;;;14.75;13.13;;;;;;;;;;5074959;28;20043;-58
2023/09/09 05:45:36;;;;;;;17.08;15.27;;;;;;;;;;5066946;28;20404;-59
2023/09/09 05:48:03;;;;;;;17.40;15.60;;;;;;;;;;5068939;28;20052;-59
2023/09/09 05:50:29;;;;;;;34.33;20.65;;;;;;;;;;5065461;28;20388;-59
2023/09/09 05:52:55;;;;;;;67.57;22.00;;;;;;;;;;5066540;28;20075;-58
2023/09/09 05:55:21;;;;;;;73.75;23.42;;;;;;;;;;5066509;28;20152;-59
2023/09/09 05:57:48;;;;;;;41.88;19.73;;;;;;;;;;5064786;28;20047;-58
2023/09/09 06:00:14;;;;;;;28.13;18.92;;;;;;;;;;5062158;28;20493;-58
2023/09/09 06:02:40;;;;;;;24.23;17.45;;;;;;;;;;5066216;28;20045;-59
2023/09/09 06:05:06;;;;;;;23.60;19.90;;;;;;;;;;5066387;28;20093;-59
2023/09/09 06:07:33;;;;;;;25.58;20.83;;;;;;;;;;5064233;28;20044;-59
2023/09/09 06:10:00;;;;;;;24.40;21.23;;;;;;;;;;5063378;28;20532;-59
2023/09/09 06:12:26;;;;;;;27.27;21.65;;;;;;;;;;5058941;28;20063;-58
2023/09/09 06:14:52;;;;;;;25.55;22.95;;;;;;;;;;5062386;28;20060;-59
2023/09/09 06:17:18;;;;;;;26.63;23.83;;;;;;;;;;5063849;28;20036;-58
2023/09/09 06:19:45;;;;;;;30.92;24.15;;;;;;;;;;5059733;28;20113;-59
2023/09/09 06:22:11;;;;;;;40.13;26.45;;;;;;;;;;5063869;28;20048;-58
2023/09/09 06:24:37;;;;;;;37.15;28.35;;;;;;;;;;5064084;28;20113;-58
2023/09/09 06:27:03;;;;;;;45.65;30.42;;;;;;;;;;5062930;28;20044;-58
2023/09/09 06:29:30;;;;;;;35.72;26.10;;;;;;;;;;5064369;28;20040;-58
2023/09/09 06:31:57;;;;;;;60.00;28.35;;;;;;;;;;5063970;28;20081;-58
2023/09/09 06:34:23;;;;;;;43.00;29.02;;;;;;;;;;5063577;28;20060;-58
2023/09/09 06:36:50;;;;;;;57.90;33.80;;;;;;;;;;5065253;28;20488;-58
2023/09/09 06:39:16;;;;;;;109.32;36.67;;;;;;;;;;5064807;28;20377;-58
2023/09/09 06:41:43;;;;;;;164.25;42.17;;;;;;;;;;5093016;28;20043;-58
2023/09/09 06:44:09;;;;;;;112.40;43.58;;;;;;;;;;5064017;28;20040;-58
2023/09/09 06:46:35;;;;;;;110.13;46.40;;;;;;;;;;5059876;28;20037;-58
2023/09/09 06:49:01;;;;;;;152.73;58.25;;;;;;;;;;5070448;28;20071;-59
2023/09/09 06:51:28;;;;;;;131.40;57.20;;;;;;;;;;5072316;28;20090;-59
2023/09/09 06:53:54;;;;;;;104.63;52.80;;;;;;;;;;5067803;28;20044;-59
2023/09/09 06:56:21;;;;;;;109.63;53.75;;;;;;;;;;5074922;28;20032;-59
2023/09/09 06:58:47;;;;;;;153.85;63.58;;;;;;;;;;5076587;28;20428;-59
2023/09/09 07:01:13;;;;;;;137.80;56.85;;;;;;;;;;5061719;28;20114;-59
2023/09/09 07:03:41;;;;;;;125.03;59.60;;;;;;;;;;5061159;28;20033;-59
2023/09/09 07:06:07;;;;;;;140.40;57.58;;;;;;;;;;5061984;28;20045;-59
2023/09/09 07:08:39;;;;;;;125.65;59.55;;;;;;;;;;5062183;28;20041;-59
2023/09/09 07:11:05;;;;;;;115.93;58.53;;;;;;;;;;5062437;28;20051;-58
2023/09/09 07:13:31;;;;;;;104.93;56.03;;;;;;;;;;5063042;28;20071;-59
2023/09/09 07:15:58;;;;;;;91.03;58.83;;;;;;;;;;5061016;28;20472;-58
2023/09/09 07:18:24;;;;;;;97.20;61.28;;;;;;;;;;5063667;28;20048;-58
2023/09/09 07:20:50;;;;;;;79.07;57.00;;;;;;;;;;5064314;28;20047;-59
2023/09/09 07:23:17;;;;;;;90.57;55.88;;;;;;;;;;5060387;28;20044;-58
2023/09/09 07:25:44;;;;;;;72.40;54.10;;;;;;;;;;5063165;28;20032;-59
2023/09/09 07:28:11;;;;;;;80.70;63.35;;;;;;;;;;5064417;28;20047;-59
2023/09/09 07:30:38;;;;;;;101.45;75.68;;;;;;;;;;5062187;28;20048;-58
2023/09/09 07:33:04;;;;;;;105.13;82.45;;;;;;;;;;5062475;28;20032;-59
2023/09/09 07:35:36;;;;;;;111.78;84.63;;;;;;;;;;5058778;28;20059;-58
2023/09/09 07:38:07;;;;;;;101.95;81.63;;;;;;;;;;5061949;28;20037;-58
2023/09/09 07:40:33;;;;;;;103.20;81.45;;;;;;;;;;5058190;28;20151;-58
2023/09/09 07:42:59;;;;;;;115.00;90.35;;;;;;;;;;5060363;28;20041;-58
2023/09/09 07:45:26;;;;;;;121.78;96.57;;;;;;;;;;5063352;28;20071;-58
2023/09/09 07:47:52;;;;;;;121.30;96.80;;;;;;;;;;5064552;28;20045;-58
2023/09/09 07:50:18;;;;;;;131.95;104.80;;;;;;;;;;5071245;28;20044;-57
2023/09/09 07:52:44;;;;;;;121.85;96.40;;;;;;;;;;5065444;28;20040;-57
2023/09/09 07:55:11;;;;;;;113.90;91.32;;;;;;;;;;5061271;28;20041;-58
2023/09/09 07:57:38;;;;;;;119.82;98.15;;;;;;;;;;5065462;28;20484;-58
2023/09/09 08:00:07;;;;;;;129.60;102.47;;;;;;;;;;5064964;28;20048;-59
2023/09/09 08:02:35;;;;;;;124.07;97.13;;;;;;;;;;5065486;28;20127;-65
2023/09/09 08:05:02;;;;;;;121.75;98.45;;;;;;;;;;5063705;28;20100;-59
2023/09/09 08:07:28;;;;;;;117.68;94.50;;;;;;;;;;5064823;28;20123;-59
2023/09/09 08:09:54;;;;;;;122.20;99.05;;;;;;;;;;5065857;28;20044;-59
2023/09/09 08:12:20;;;;;;;121.35;100.97;;;;;;;;;;5064132;28;20448;-59
2023/09/09 08:14:47;;;;;;;111.95;94.20;;;;;;;;;;5065248;28;20439;-59
2023/09/09 08:17:13;;;;;;;114.88;94.78;;;;;;;;;;5066286;28;20102;-59
2023/09/09 08:19:40;;;;;;;108.55;90.30;;;;;;;;;;5071078;28;20044;-59
2023/09/09 08:22:06;;;;;;;105.70;86.72;;;;;;;;;;5073287;28;20036;-59
2023/09/09 08:24:33;;;;;;;95.35;82.18;;;;;;;;;;5070766;28;20041;-59
2023/09/09 08:26:59;;;;;;;98.22;82.22;;;;;;;;;;5067556;28;20469;-59
2023/09/09 08:29:25;;;;;;;104.95;82.20;;;;;;;;;;5057929;28;20040;-59
2023/09/09 08:31:51;;;;;;;87.55;73.68;;;;;;;;;;5061293;28;20092;-59
2023/09/09 08:34:18;;;;;;;72.40;59.67;;;;;;;;;;5068492;28;20056;-59
2023/09/09 08:36:44;;;;;;;67.47;56.33;;;;;;;;;;5062250;28;20049;-59
2023/09/09 08:39:11;;;;;;;66.65;57.88;;;;;;;;;;5067784;28;20375;-59
2023/09/09 08:41:40;;;;;;;59.75;52.33;;;;;;;;;;5069139;28;20036;-59
2023/09/09 08:44:25;;;;;;;57.75;51.30;;;;;;;;;;5067232;28;20075;-59
2023/09/09 08:46:52;;;;;;;63.95;55.35;;;;;;;;;;5053460;28;20045;-59
2023/09/09 08:49:20;;;;;;;62.38;53.38;;;;;;;;;;5055798;28;20125;-59
2023/09/09 08:51:52;;;;;;;59.47;52.67;;;;;;;;;;5065840;28;20064;-59
2023/09/09 08:54:18;;;;;;;56.90;49.85;;;;;;;;;;5060128;28;20404;-59
2023/09/09 08:56:45;;;;;;;56.33;48.83;;;;;;;;;;5067754;28;20048;-59
2023/09/09 08:59:13;;;;;;;58.75;50.22;;;;;;;;;;5070390;28;20060;-59
2023/09/09 09:01:40;;;;;;;58.10;47.00;;;;;;;;;;5069573;28;20124;-59
2023/09/09 09:04:06;;;;;;;49.55;42.15;;;;;;;;;;5063519;28;20041;-59
2023/09/09 09:06:34;;;;;;;46.20;39.47;;;;;;;;;;5067265;28;20052;-59
2023/09/09 09:09:00;;;;;;;43.63;35.63;;;;;;;;;;5070512;28;20511;-59
2023/09/09 09:11:26;;;;;;;44.35;35.25;;;;;;;;;;5070746;28;20048;-59
2023/09/09 09:13:54;;;;;;;40.13;33.47;;;;;;;;;;5068719;28;20040;-59
2023/09/09 09:16:20;;;;;;;40.38;33.80;;;;;;;;;;5072366;28;20048;-59
2023/09/09 09:18:46;;;;;;;43.60;37.58;;;;;;;;;;5074101;28;20113;-59
2023/09/09 09:21:12;;;;;;;45.38;35.15;;;;;;;;;;5074155;28;20116;-59
2023/09/09 09:23:42;;;;;;;44.05;35.20;;;;;;;;;;5072898;28;20036;-59
2023/09/09 09:26:22;;;;;;;41.30;35.00;;;;;;;;;;5071864;28;20040;-59
2023/09/09 09:28:48;;;;;;;40.28;33.25;;;;;;;;;;5073726;28;20063;-59
2023/09/09 09:31:21;;;;;;;41.33;34.55;;;;;;;;;;5071069;28;20048;-59
2023/09/09 09:33:48;;;;;;;38.22;32.80;;;;;;;;;;5074167;28;20041;-59
2023/09/09 09:36:18;;;;;;;38.63;31.02;;;;;;;;;;5070012;28;20040;-59
2023/09/09 09:38:44;;;;;;;33.63;26.67;;;;;;;;;;5073702;28;20070;-59
2023/09/09 09:41:10;;;;;;;24.58;20.45;;;;;;;;;;5066278;28;20058;-59
2023/09/09 09:43:37;;;;;;;22.55;18.73;;;;;;;;;;5061660;28;20052;-60
2023/09/09 09:46:16;;;;;;;23.15;18.08;;;;;;;;;;5072998;28;20040;-59
2023/09/09 09:48:43;;;;;;;23.05;18.48;;;;;;;;;;5061097;28;20056;-59
2023/09/09 09:51:09;;;;;;;23.75;19.73;;;;;;;;;;5073786;28;20060;-60
2023/09/09 09:53:50;;;;;;;24.63;20.92;;;;;;;;;;5073379;28;20362;-59
2023/09/09 09:56:17;;;;;;;22.23;18.00;;;;;;;;;;5063428;28;20119;-60
2023/09/09 09:58:44;;;;;;;25.83;17.98;;;;;;;;;;5067796;28;20040;-60
2023/09/09 10:01:11;;;;;;;23.58;18.65;;;;;;;;;;5073116;28;20040;-60
2023/09/09 10:03:42;;;;;;;19.40;16.80;;;;;;;;;;5069375;28;20847;-59
2023/09/09 10:06:12;;;;;;;21.83;17.75;;;;;;;;;;5068956;28;20074;-59
2023/09/09 10:08:41;;;;;;;19.23;16.58;;;;;;;;;;5068016;28;20124;-60
2023/09/09 10:11:15;;;;;;;19.25;15.65;;;;;;;;;;5063116;28;20091;-60
2023/09/09 10:13:44;;;;;;;18.85;16.95;;;;;;;;;;5072664;28;20051;-59
2023/09/09 10:16:10;;;;;;;18.02;14.52;;;;;;;;;;5073684;28;20059;-59
2023/09/09 10:18:37;;;;;;;19.80;15.15;;;;;;;;;;5073168;28;20048;-60
2023/09/09 10:21:09;;;;;;;14.90;13.27;;;;;;;;;;5072902;28;20032;-60
2023/09/09 10:23:36;;;;;;;21.67;15.57;;;;;;;;;;5069438;28;20190;-59
2023/09/09 10:26:03;;;;;;;16.20;13.88;;;;;;;;;;5066610;28;20053;-60
2023/09/09 10:28:29;;;;;;;16.23;13.50;;;;;;;;;;5065443;28;20828;-60
2023/09/09 10:30:56;;;;;;;15.48;12.60;;;;;;;;;;5073126;28;20457;-59
2023/09/09 10:33:23;;;;;;;18.40;12.82;;;;;;;;;;5072287;28;20383;-60
2023/09/09 10:35:50;;;;;;;15.98;11.82;;;;;;;;;;5070685;28;20095;-60
2023/09/09 10:38:18;;;;;;;15.10;11.75;;;;;;;;;;5071401;28;20044;-60
2023/09/09 10:40:46;;;;;;;14.60;12.00;;;;;;;;;;5071960;28;20052;-60
2023/09/09 10:43:13;;;;;;;15.60;12.02;;;;;;;;;;5070933;28;20044;-60
2023/09/09 10:45:43;;;;;;;15.88;11.10;;;;;;;;;;5072770;28;20135;-61
2023/09/09 10:48:10;;;;;;;13.65;10.30;;;;;;;;;;5070529;28;20128;-60
2023/09/09 10:50:46;;;;;;;11.63;9.55;;;;;;;;;;5066024;28;20078;-60
2023/09/09 10:53:13;;;;;;;11.30;8.77;;;;;;;;;;5072265;28;20130;-61
2023/09/09 10:55:39;;;;;;;10.38;8.63;;;;;;;;;;5072342;28;20049;-60
2023/09/09 10:58:09;;;;;;;11.63;8.27;;;;;;;;;;5072201;28;20432;-60
2023/09/09 11:00:37;;;;;;;9.88;6.80;;;;;;;;;;5070529;28;20411;-60
2023/09/09 11:03:08;;;;;;;8.70;6.30;;;;;;;;;;5072508;28;20072;-61
2023/09/09 11:05:55;;;;;;;10.90;7.63;;;;;;;;;;5060890;28;20075;-61
2023/09/09 11:08:28;;;;;;;8.88;6.72;;;;;;;;;;5067961;28;20086;-60
2023/09/09 11:11:14;;;;;;;12.07;7.65;;;;;;;;;;5072138;28;20043;-60
2023/09/09 11:13:41;;;;;;;8.75;6.22;;;;;;;;;;5072000;28;20056;-60
2023/09/09 11:16:08;;;;;;;8.40;5.97;;;;;;;;;;5072208;28;20037;-60
2023/09/09 11:18:35;;;;;;;10.68;6.70;;;;;;;;;;5065184;28;20061;-60
2023/09/09 11:21:03;;;;;;;10.27;5.88;;;;;;;;;;5067883;28;20049;-60
2023/09/09 11:23:31;;;;;;;8.65;6.68;;;;;;;;;;5067218;28;20056;-60
2023/09/09 11:25:58;;;;;;;8.85;6.15;;;;;;;;;;5067641;28;20048;-60
2023/09/09 11:28:24;;;;;;;11.73;6.25;;;;;;;;;;5062507;28;20098;-60
2023/09/09 11:30:50;;;;;;;7.78;5.68;;;;;;;;;;5071350;28;20062;-60
2023/09/09 11:33:25;;;;;;;8.27;5.82;;;;;;;;;;5069424;28;20060;-60
2023/09/09 11:35:52;;;;;;;10.23;6.78;;;;;;;;;;5066040;28;20041;-60
2023/09/09 11:38:18;;;;;;;14.07;6.22;;;;;;;;;;5067116;28;20037;-60
2023/09/09 11:40:46;;;;;;;7.38;6.40;;;;;;;;;;5071336;28;20048;-60
2023/09/09 11:43:14;;;;;;;9.27;6.13;;;;;;;;;;5070471;28;20043;-61
2023/09/09 11:45:41;;;;;;;7.15;4.88;;;;;;;;;;5070174;28;20059;-61
2023/09/09 11:48:13;;;;;;;7.20;5.30;;;;;;;;;;5068964;28;20044;-60
2023/09/09 11:50:41;;;;;;;8.00;6.63;;;;;;;;;;5071536;28;20040;-60
2023/09/09 11:53:08;;;;;;;10.57;6.78;;;;;;;;;;5070085;28;20096;-60
2023/09/09 11:55:34;;;;;;;11.07;6.35;;;;;;;;;;5071191;28;20048;-60
2023/09/09 11:58:00;;;;;;;8.90;6.15;;;;;;;;;;5071395;28;20500;-61
2023/09/09 12:00:27;;;;;;;9.23;6.50;;;;;;;;;;5070183;28;20044;-60
2023/09/09 12:02:53;;;;;;;9.18;6.20;;;;;;;;;;5071572;28;20535;-61
2023/09/09 12:05:19;;;;;;;9.48;6.47;;;;;;;;;;5070378;28;20141;-60
2023/09/09 12:07:46;;;;;;;7.63;6.05;;;;;;;;;;5070096;28;20175;-60
2023/09/09 12:10:14;;;;;;;7.18;5.07;;;;;;;;;;5069917;28;20033;-60
2023/09/09 12:12:47;;;;;;;7.07;5.32;;;;;;;;;;5068807;28;20415;-60
2023/09/09 12:15:15;;;;;;;9.85;5.47;;;;;;;;;;5071248;28;20036;-61
2023/09/09 12:17:41;;;;;;;7.70;5.65;;;;;;;;;;5070758;28;20101;-60
2023/09/09 12:20:08;;;;;;;6.55;5.03;;;;;;;;;;5070751;28;20135;-60
2023/09/09 12:22:35;;;;;;;8.88;4.82;;;;;;;;;;5070113;28;20048;-60
2023/09/09 12:25:04;;;;;;;6.97;5.07;;;;;;;;;;5068641;28;20040;-61
2023/09/09 12:27:43;;;;;;;9.40;5.13;;;;;;;;;;5070247;28;20072;-60
2023/09/09 12:30:30;;;;;;;6.78;4.78;;;;;;;;;;5070429;28;20040;-61
2023/09/09 12:32:56;;;;;;;6.15;4.30;;;;;;;;;;5068478;28;20067;-61
2023/09/09 12:35:22;;;;;;;6.53;4.28;;;;;;;;;;5070335;28;20392;-60
2023/09/09 12:37:48;;;;;;;8.98;3.88;;;;;;;;;;5070487;28;20040;-61
2023/09/09 12:40:14;;;;;;;6.75;4.43;;;;;;;;;;5069303;28;20044;-60
2023/09/09 12:42:41;;;;;;;6.65;4.30;;;;;;;;;;5068563;28;20047;-60
2023/09/09 12:45:10;;;;;;;8.88;4.20;;;;;;;;;;5069394;28;20128;-61
2023/09/09 12:47:37;;;;;;;6.53;4.35;;;;;;;;;;5069095;28;20391;-60
2023/09/09 12:50:03;;;;;;;8.95;4.55;;;;;;;;;;5070603;28;20054;-61
2023/09/09 12:52:32;;;;;;;8.35;4.22;;;;;;;;;;5070628;28;20076;-61
2023/09/09 12:54:58;;;;;;;6.80;4.15;;;;;;;;;;5069182;28;20051;-61
2023/09/09 12:57:25;;;;;;;5.43;3.90;;;;;;;;;;5069709;28;20036;-60
2023/09/09 12:59:51;;;;;;;7.15;3.78;;;;;;;;;;5069769;28;20044;-61
2023/09/09 13:02:18;;;;;;;6.55;4.00;;;;;;;;;;5069349;28;20036;-61
2023/09/09 13:04:44;;;;;;;8.30;4.55;;;;;;;;;;5070525;28;20048;-61
2023/09/09 13:07:10;;;;;;;6.88;4.15;;;;;;;;;;5070698;28;20036;-61
2023/09/09 13:09:37;;;;;;;5.97;4.32;;;;;;;;;;5069847;28;20067;-61
2023/09/09 13:12:03;;;;;;;7.28;4.28;;;;;;;;;;5070236;28;20345;-61
2023/09/09 13:14:29;;;;;;;9.32;4.20;;;;;;;;;;5069852;28;20141;-61
2023/09/09 13:16:55;;;;;;;7.53;4.82;;;;;;;;;;5069808;28;20546;-60
2023/09/09 13:19:22;;;;;;;10.75;4.50;;;;;;;;;;5070264;28;20041;-61
2023/09/09 13:21:48;;;;;;;6.95;4.80;;;;;;;;;;5068915;28;20354;-60
2023/09/09 13:24:14;;;;;;;7.88;4.25;;;;;;;;;;5066734;28;20055;-61
2023/09/09 13:26:40;;;;;;;9.68;4.15;;;;;;;;;;5070034;28;20154;-61
2023/09/09 13:29:07;;;;;;;6.72;4.10;;;;;;;;;;5070035;28;20085;-60
2023/09/09 13:31:33;;;;;;;9.23;4.30;;;;;;;;;;5069495;28;20045;-60
2023/09/09 13:33:59;;;;;;;5.38;3.55;;;;;;;;;;5075532;28;20044;-60
2023/09/09 13:36:25;;;;;;;6.18;4.10;;;;;;;;;;5064701;28;20127;-60
2023/09/09 13:38:51;;;;;;;4.82;3.92;;;;;;;;;;5065910;28;20047;-61
2023/09/09 13:41:18;;;;;;;7.53;4.60;;;;;;;;;;5070008;28;20449;-61
2023/09/09 13:43:44;;;;;;;7.65;4.32;;;;;;;;;;5070294;28;20040;-61
2023/09/09 13:46:10;;;;;;;8.05;4.20;;;;;;;;;;5069458;28;20051;-61
2023/09/09 13:48:37;;;;;;;6.53;4.78;;;;;;;;;;5064892;28;20087;-61
2023/09/09 13:51:03;;;;;;;11.82;4.93;;;;;;;;;;5071520;28;20051;-61
2023/09/09 13:53:29;;;;;;;6.82;4.53;;;;;;;;;;5067575;28;20388;-61
2023/09/09 13:55:56;;;;;;;6.13;4.07;;;;;;;;;;5069870;28;20166;-61
2023/09/09 13:58:22;;;;;;;6.03;4.35;;;;;;;;;;5067363;28;20070;-61
2023/09/09 14:00:50;;;;;;;6.20;4.50;;;;;;;;;;5073524;28;20045;-61
2023/09/09 14:03:17;;;;;;;7.68;5.57;;;;;;;;;;5073484;28;20059;-61
2023/09/09 14:05:43;;;;;;;8.10;6.45;;;;;;;;;;5072413;28;20496;-61
2023/09/09 14:08:09;;;;;;;8.27;5.97;;;;;;;;;;5076937;28;20044;-61
2023/09/09 14:10:35;;;;;;;7.75;5.00;;;;;;;;;;5070415;28;20045;-61
2023/09/09 14:13:01;;;;;;;10.15;5.78;;;;;;;;;;5069177;28;20079;-61
2023/09/09 14:15:28;;;;;;;7.10;5.28;;;;;;;;;;5065770;28;20435;-61
2023/09/09 14:17:54;;;;;;;9.20;4.75;;;;;;;;;;5062660;28;20048;-61
2023/09/09 14:20:20;;;;;;;9.55;5.50;;;;;;;;;;5067723;28;20041;-62
2023/09/09 14:22:48;;;;;;;9.25;5.65;;;;;;;;;;5075997;28;20047;-61